createdAt,value
2019-02-24T00:00:48.049Z,96.20
2019-02-24T00:01:54.220Z,95.70
2019-02-24T00:03:02.206Z,95.70
2019-02-24T00:04:07.568Z,95.40
2019-02-24T00:05:12.711Z,94.90
2019-02-24T00:06:17.557Z,94.80
2019-02-24T00:07:24.814Z,94.50
2019-02-24T00:08:29.672Z,94.40
2019-02-24T00:09:34.798Z,94.40
2019-02-24T00:10:56.728Z,94.50
2019-02-24T00:12:04.700Z,94.50
2019-02-24T00:13:13.068Z,94.80
2019-02-24T00:14:31.302Z,94.80
2019-02-24T00:15:36.204Z,94.60
2019-02-24T00:16:41.308Z,94.60
2019-02-24T00:17:46.274Z,94.90
2019-02-24T00:18:51.346Z,94.60
2019-02-24T00:19:57.177Z,94.50
2019-02-24T00:21:02.397Z,94.40
2019-02-24T00:22:07.629Z,94.40
2019-02-24T00:23:12.936Z,94.10
2019-02-24T00:24:18.105Z,94.10
2019-02-24T00:25:25.176Z,94.20
2019-02-24T00:26:30.114Z,94.40
2019-02-24T00:27:36.418Z,94.30
2019-02-24T00:28:44.199Z,94.20
2019-02-24T00:29:52.336Z,94.40
2019-02-24T00:31:01.653Z,95.30
2019-02-24T00:32:06.579Z,94.10
2019-02-24T00:33:11.459Z,94.60
2019-02-24T00:34:16.449Z,93.80
2019-02-24T00:35:21.723Z,94.00
2019-02-24T00:36:26.642Z,94.00
2019-02-24T00:37:31.929Z,93.80
2019-02-24T00:38:39.275Z,93.80
2019-02-24T00:39:44.526Z,93.90
2019-02-24T00:40:49.496Z,94.40
2019-02-24T00:41:54.576Z,94.30
2019-02-24T00:42:59.895Z,94.10
2019-02-24T00:44:10.298Z,94.20
2019-02-24T00:45:15.292Z,94.70
2019-02-24T00:46:20.218Z,94.40
2019-02-24T00:47:25.378Z,94.30
2019-02-24T00:48:30.296Z,94.30
2019-02-24T00:49:35.174Z,94.10
2019-02-24T00:50:40.120Z,94.10
2019-02-24T00:51:46.371Z,94.40
2019-02-24T00:52:51.253Z,94.80
2019-02-24T00:53:56.244Z,94.50
2019-02-24T00:55:01.855Z,94.10
2019-02-24T00:56:09.062Z,94.10
2019-02-24T00:57:14.089Z,94.00
2019-02-24T00:58:20.287Z,94.10
2019-02-24T00:59:37.652Z,94.20
2019-02-24T01:00:42.995Z,94.10
2019-02-24T01:01:48.046Z,93.90
2019-02-24T01:02:52.997Z,93.80
2019-02-24T01:03:58.021Z,93.90
2019-02-24T01:05:03.714Z,93.50
2019-02-24T01:06:08.706Z,93.50
2019-02-24T01:07:14.301Z,93.50
2019-02-24T01:08:21.959Z,93.60
2019-02-24T01:09:26.930Z,93.90
2019-02-24T01:10:32.182Z,94.40
2019-02-24T01:11:41.132Z,94.00
2019-02-24T01:12:47.197Z,94.00
2019-02-24T01:13:53.913Z,93.90
2019-02-24T01:14:58.894Z,94.70
2019-02-24T01:16:04.245Z,94.40
2019-02-24T01:17:09.325Z,94.20
2019-02-24T01:18:14.570Z,94.20
2019-02-24T01:19:20.439Z,94.60
2019-02-24T01:20:25.547Z,94.70
2019-02-24T01:21:30.458Z,95.20
2019-02-24T01:22:35.329Z,95.50
2019-02-24T01:23:40.357Z,95.60
2019-02-24T01:24:45.598Z,96.00
2019-02-24T01:25:51.357Z,95.90
2019-02-24T01:26:56.709Z,95.90
2019-02-24T01:28:01.592Z,95.90
2019-02-24T01:29:06.525Z,96.10
2019-02-24T01:30:15.876Z,96.10
2019-02-24T01:31:24.258Z,96.00
2019-02-24T01:32:29.594Z,96.00
2019-02-24T01:33:34.769Z,96.20
2019-02-24T01:34:42.400Z,96.30
2019-02-24T01:35:47.271Z,96.50
2019-02-24T01:36:52.242Z,96.60
2019-02-24T01:37:57.773Z,96.30
2019-02-24T01:39:02.847Z,96.80
2019-02-24T01:40:08.386Z,96.20
2019-02-24T01:41:13.530Z,96.10
2019-02-24T01:42:22.119Z,96.50
2019-02-24T01:43:27.452Z,96.50
2019-02-24T01:44:32.554Z,96.50
2019-02-24T01:45:37.576Z,97.40
2019-02-24T01:46:42.411Z,97.40
2019-02-24T01:47:47.342Z,97.20
2019-02-24T01:48:52.233Z,99.80
2019-02-24T01:49:57.556Z,99.90
2019-02-24T01:51:02.468Z,98.70
2019-02-24T01:52:07.312Z,99.00
2019-02-24T01:53:12.217Z,99.90
2019-02-24T01:54:17.164Z,99.90
2019-02-24T01:55:22.063Z,99.90
2019-02-24T01:56:26.939Z,99.90
2019-02-24T01:57:31.838Z,96.90
2019-02-24T01:58:36.728Z,97.20
2019-02-24T01:59:41.681Z,97.40
2019-02-24T02:00:46.716Z,97.50
2019-02-24T02:01:52.002Z,97.80
2019-02-24T02:02:56.824Z,97.80
2019-02-24T02:04:01.701Z,97.70
2019-02-24T02:05:07.530Z,98.20
2019-02-24T02:06:12.406Z,99.90
2019-02-24T02:07:17.306Z,98.90
2019-02-24T02:08:22.798Z,94.20
2019-02-24T02:09:27.685Z,99.90
2019-02-24T02:10:32.558Z,95.00
2019-02-24T02:11:41.190Z,95.40
2019-02-24T02:12:46.144Z,95.90
2019-02-24T02:13:51.062Z,98.10
2019-02-24T02:14:56.180Z,99.80
2019-02-24T02:16:01.190Z,94.60
2019-02-24T02:17:06.076Z,95.30
2019-02-24T02:18:10.978Z,93.00
2019-02-24T02:19:15.869Z,92.90
2019-02-24T02:20:20.803Z,92.80
2019-02-24T02:21:25.706Z,92.80
2019-02-24T02:22:30.583Z,93.30
2019-02-24T02:23:35.439Z,93.00
2019-02-24T02:24:40.489Z,92.80
2019-02-24T02:25:45.353Z,92.80
2019-02-24T02:26:50.509Z,93.60
2019-02-24T02:28:59.853Z,96.30
2019-02-24T02:30:05.883Z,97.10
2019-02-24T02:31:10.923Z,92.40
2019-02-24T02:32:15.853Z,92.70
2019-02-24T02:33:20.767Z,92.60
2019-02-24T02:34:26.279Z,92.20
2019-02-24T02:35:31.357Z,92.40
2019-02-24T02:36:36.192Z,92.60
2019-02-24T02:37:41.211Z,92.90
2019-02-24T02:38:46.061Z,92.60
2019-02-24T02:39:50.980Z,92.40
2019-02-24T02:40:56.399Z,92.40
2019-02-24T02:42:01.265Z,92.30
2019-02-24T02:43:06.103Z,92.30
2019-02-24T02:44:10.921Z,92.30
2019-02-24T02:45:15.818Z,92.40
2019-02-24T02:46:23.980Z,92.30
2019-02-24T02:47:29.910Z,92.30
2019-02-24T02:48:35.026Z,92.10
2019-02-24T02:49:40.004Z,92.30
2019-02-24T02:50:44.994Z,92.20
2019-02-24T02:51:49.925Z,92.20
2019-02-24T02:52:54.763Z,91.90
2019-02-24T02:54:00.070Z,91.90
2019-02-24T02:55:07.576Z,91.70
2019-02-24T02:56:13.203Z,91.80
2019-02-24T02:57:18.220Z,91.80
2019-02-24T02:58:23.096Z,92.10
2019-02-24T02:59:27.975Z,91.90
2019-02-24T03:00:34.575Z,91.70
2019-02-24T03:01:39.557Z,91.70
2019-02-24T03:02:44.778Z,91.50
2019-02-24T03:03:49.687Z,91.40
2019-02-24T03:04:54.837Z,91.40
2019-02-24T03:06:10.180Z,91.40
2019-02-24T03:07:42.974Z,91.20
2019-02-24T03:08:52.314Z,91.20
2019-02-24T03:09:57.379Z,91.30
2019-02-24T03:11:02.188Z,91.30
2019-02-24T03:12:07.203Z,91.30
2019-02-24T03:13:12.002Z,91.50
2019-02-24T03:14:16.851Z,91.20
2019-02-24T03:15:21.680Z,91.10
2019-02-24T03:16:28.427Z,90.90
2019-02-24T03:17:33.521Z,90.80
2019-02-24T03:18:38.402Z,90.70
2019-02-24T03:19:43.302Z,90.80
2019-02-24T03:20:48.168Z,90.90
2019-02-24T03:21:53.077Z,90.40
2019-02-24T03:22:58.351Z,90.40
2019-02-24T03:24:03.583Z,90.50
2019-02-24T03:25:08.405Z,90.60
2019-02-24T03:26:13.297Z,90.90
2019-02-24T03:27:18.116Z,91.00
2019-02-24T03:28:26.158Z,90.90
2019-02-24T03:29:36.441Z,90.80
2019-02-24T03:30:40.722Z,90.50
2019-02-24T03:31:45.576Z,90.30
2019-02-24T03:32:50.422Z,90.20
2019-02-24T03:33:55.714Z,90.20
2019-02-24T03:35:00.920Z,90.00
2019-02-24T03:36:05.757Z,90.10
2019-02-24T03:37:10.675Z,90.30
2019-02-24T03:38:15.477Z,90.30
2019-02-24T03:39:20.402Z,90.20
2019-02-24T03:40:25.570Z,90.10
2019-02-24T03:41:30.934Z,90.30
2019-02-24T03:42:35.816Z,90.10
2019-02-24T03:43:40.671Z,90.10
2019-02-24T03:44:45.573Z,90.10
2019-02-24T03:45:50.405Z,90.00
2019-02-24T03:46:55.269Z,90.10
2019-02-24T03:48:00.612Z,90.30
2019-02-24T03:49:05.507Z,90.10
2019-02-24T03:50:10.610Z,90.20
2019-02-24T03:51:15.484Z,90.10
2019-02-24T03:52:20.428Z,90.30
2019-02-24T03:53:25.632Z,90.00
2019-02-24T03:54:30.499Z,90.20
2019-02-24T03:55:35.493Z,90.10
2019-02-24T03:56:45.099Z,90.40
2019-02-24T03:57:49.980Z,90.50
2019-02-24T03:58:54.909Z,90.70
2019-02-24T04:00:01.428Z,90.60
2019-02-24T04:01:07.998Z,90.80
2019-02-24T04:02:12.822Z,90.40
2019-02-24T04:03:17.743Z,90.10
2019-02-24T04:04:22.581Z,90.30
2019-02-24T04:05:27.768Z,90.50
2019-02-24T04:06:32.712Z,90.80
2019-02-24T04:07:37.662Z,90.50
2019-02-24T04:08:42.552Z,90.40
2019-02-24T04:09:47.444Z,90.30
2019-02-24T04:10:55.107Z,90.30
2019-02-24T04:12:00.435Z,90.50
2019-02-24T04:13:05.341Z,90.20
2019-02-24T04:14:10.252Z,90.40
2019-02-24T04:15:15.261Z,90.50
2019-02-24T04:16:20.074Z,90.80
2019-02-24T04:17:24.901Z,90.60
2019-02-24T04:18:30.180Z,91.00
2019-02-24T04:19:35.011Z,91.00
2019-02-24T04:20:39.895Z,90.60
2019-02-24T04:21:46.343Z,90.40
2019-02-24T04:22:51.248Z,90.30
2019-02-24T04:23:56.641Z,90.40
2019-02-24T04:25:01.568Z,90.80
2019-02-24T04:26:06.388Z,90.60
2019-02-24T04:27:11.785Z,90.90
2019-02-24T04:28:16.682Z,90.70
2019-02-24T04:29:25.407Z,90.60
2019-02-24T04:30:35.870Z,90.60
2019-02-24T04:31:40.817Z,90.70
2019-02-24T04:32:46.552Z,90.60
2019-02-24T04:33:51.429Z,90.60
2019-02-24T04:35:41.451Z,91.00
2019-02-24T04:36:47.987Z,91.10
2019-02-24T04:37:52.796Z,91.10
2019-02-24T04:38:57.640Z,91.10
2019-02-24T04:40:02.340Z,91.60
2019-02-24T04:41:07.315Z,91.30
2019-02-24T04:42:12.105Z,91.20
2019-02-24T04:43:16.946Z,91.30
2019-02-24T04:44:21.887Z,91.40
2019-02-24T04:45:26.692Z,91.10
2019-02-24T04:46:31.542Z,91.70
2019-02-24T04:47:36.345Z,92.00
2019-02-24T04:48:41.668Z,92.20
2019-02-24T04:49:46.466Z,91.60
2019-02-24T04:50:51.277Z,91.70
2019-02-24T04:51:56.049Z,91.50
2019-02-24T04:53:00.824Z,91.40
2019-02-24T04:54:05.609Z,91.30
2019-02-24T04:55:10.379Z,91.40
2019-02-24T04:56:15.092Z,91.80
2019-02-24T04:57:19.909Z,92.30
2019-02-24T04:58:24.657Z,92.30
2019-02-24T04:59:34.946Z,91.70
2019-02-24T05:00:36.616Z,91.90
2019-02-24T05:01:41.398Z,92.20
2019-02-24T05:02:46.224Z,92.40
2019-02-24T05:03:51.044Z,92.40
2019-02-24T05:04:55.765Z,92.80
2019-02-24T05:06:01.202Z,92.70
2019-02-24T05:07:05.980Z,92.70
2019-02-24T05:08:10.815Z,92.30
2019-02-24T05:09:15.620Z,92.40
2019-02-24T05:10:20.456Z,92.60
2019-02-24T05:11:25.362Z,92.60
2019-02-24T05:12:30.146Z,92.50
2019-02-24T05:13:35.045Z,92.50
2019-02-24T05:14:39.744Z,92.50
2019-02-24T05:15:44.438Z,92.70
2019-02-24T05:16:49.273Z,92.60
2019-02-24T05:17:54.028Z,92.60
2019-02-24T05:18:58.867Z,92.40
2019-02-24T05:20:05.180Z,92.00
2019-02-24T05:21:10.069Z,92.40
2019-02-24T05:22:14.828Z,92.20
2019-02-24T05:23:20.211Z,92.20
2019-02-24T05:24:25.299Z,92.00
2019-02-24T05:25:30.197Z,91.80
2019-02-24T05:26:34.951Z,91.70
2019-02-24T05:27:39.843Z,91.80
2019-02-24T05:28:45.405Z,91.60
2019-02-24T05:29:50.164Z,91.50
2019-02-24T05:30:55.205Z,91.30
2019-02-24T05:32:00.022Z,91.60
2019-02-24T05:33:04.988Z,92.00
2019-02-24T05:34:11.296Z,91.70
2019-02-24T05:35:16.546Z,91.60
2019-02-24T05:36:21.333Z,91.80
2019-02-24T05:37:26.157Z,91.90
2019-02-24T05:38:31.092Z,92.00
2019-02-24T05:39:36.048Z,92.10
2019-02-24T05:40:41.070Z,91.90
2019-02-24T05:41:45.903Z,92.00
2019-02-24T05:42:50.820Z,91.90
2019-02-24T05:43:55.602Z,91.90
2019-02-24T05:45:00.472Z,91.90
2019-02-24T05:46:05.224Z,91.80
2019-02-24T05:47:10.305Z,91.80
2019-02-24T05:48:15.075Z,91.70
2019-02-24T05:49:20.435Z,91.70
2019-02-24T05:50:25.440Z,91.70
2019-02-24T05:51:30.144Z,91.70
2019-02-24T05:52:35.379Z,91.70
2019-02-24T05:53:40.501Z,91.50
2019-02-24T05:54:45.248Z,91.30
2019-02-24T05:55:50.204Z,91.10
2019-02-24T05:56:54.900Z,91.20
2019-02-24T05:57:59.658Z,91.50
2019-02-24T05:59:04.880Z,91.10
2019-02-24T06:00:09.899Z,91.20
2019-02-24T06:01:14.749Z,91.20
2019-02-24T06:02:19.485Z,91.00
2019-02-24T06:03:24.239Z,91.00
2019-02-24T06:04:31.806Z,91.20
2019-02-24T06:05:37.095Z,91.10
2019-02-24T06:06:41.951Z,91.40
2019-02-24T06:07:46.910Z,90.90
2019-02-24T06:08:51.845Z,91.20
2019-02-24T06:09:56.644Z,90.60
2019-02-24T06:11:01.429Z,90.70
2019-02-24T06:12:09.439Z,91.00
2019-02-24T06:13:14.356Z,90.80
2019-02-24T06:14:19.079Z,91.00
2019-02-24T06:15:23.801Z,90.50
2019-02-24T06:16:28.526Z,90.20
2019-02-24T06:17:33.268Z,90.20
2019-02-24T06:18:38.432Z,90.20
2019-02-24T06:19:43.243Z,90.20
2019-02-24T06:20:47.971Z,90.20
2019-02-24T06:21:52.963Z,90.00
2019-02-24T06:22:57.716Z,90.10
2019-02-24T06:24:02.657Z,90.00
2019-02-24T06:25:08.975Z,89.80
2019-02-24T06:26:14.023Z,90.00
2019-02-24T06:27:18.765Z,90.00
2019-02-24T06:28:23.704Z,90.00
2019-02-24T06:29:31.009Z,89.70
2019-02-24T06:30:35.732Z,89.80
2019-02-24T06:31:40.452Z,90.00
2019-02-24T06:32:45.201Z,90.00
2019-02-24T06:33:50.232Z,89.80
2019-02-24T06:34:55.016Z,90.00
2019-02-24T06:35:59.788Z,89.90
2019-02-24T06:37:04.580Z,90.10
2019-02-24T06:38:09.316Z,90.00
2019-02-24T06:39:14.142Z,90.40
2019-02-24T06:40:21.886Z,90.40
2019-02-24T06:41:27.086Z,89.70
2019-02-24T06:42:34.889Z,89.90
2019-02-24T06:43:40.020Z,90.10
2019-02-24T06:44:44.848Z,90.00
2019-02-24T06:45:49.604Z,90.20
2019-02-24T06:46:54.382Z,90.10
2019-02-24T06:47:59.153Z,90.00
2019-02-24T06:49:06.779Z,89.80
2019-02-24T06:50:12.970Z,90.20
2019-02-24T06:51:19.590Z,90.30
2019-02-24T06:52:29.211Z,90.60
2019-02-24T06:53:45.756Z,90.30
2019-02-24T06:54:59.728Z,90.20
2019-02-24T06:56:06.358Z,89.80
2019-02-24T06:57:11.847Z,89.30
2019-02-24T06:58:18.529Z,89.60
2019-02-24T06:59:23.455Z,89.50
2019-02-24T07:00:28.351Z,89.00
2019-02-24T07:01:57.663Z,89.00
2019-02-24T07:02:44.134Z,89.20
2019-02-24T07:03:50.498Z,89.40
2019-02-24T07:04:55.949Z,88.60
2019-02-24T07:06:00.962Z,88.50
2019-02-24T07:07:06.286Z,88.40
2019-02-24T07:08:12.098Z,88.00
2019-02-24T07:09:19.949Z,87.20
2019-02-24T07:10:25.428Z,86.80
2019-02-24T07:11:30.245Z,85.80
2019-02-24T07:12:35.185Z,85.50
2019-02-24T07:13:40.332Z,85.60
2019-02-24T07:14:45.190Z,85.60
2019-02-24T07:15:50.314Z,84.70
2019-02-24T07:16:55.981Z,84.60
2019-02-24T07:18:07.244Z,84.70
2019-02-24T07:19:12.716Z,85.10
2019-02-24T07:20:17.693Z,85.00
2019-02-24T07:21:22.688Z,85.70
2019-02-24T07:22:27.603Z,84.80
2019-02-24T07:23:32.832Z,85.20
2019-02-24T07:24:37.881Z,84.60
2019-02-24T07:25:44.703Z,84.00
2019-02-24T07:26:49.439Z,83.30
2019-02-24T07:27:55.975Z,82.70
2019-02-24T07:29:00.960Z,82.60
2019-02-24T07:30:07.110Z,82.50
2019-02-24T07:31:12.288Z,82.70
2019-02-24T07:32:20.877Z,82.70
2019-02-24T07:33:27.808Z,82.30
2019-02-24T07:34:34.365Z,81.80
2019-02-24T07:35:40.256Z,81.80
2019-02-24T07:36:49.452Z,81.70
2019-02-24T07:37:55.187Z,81.60
2019-02-24T07:39:07.452Z,81.30
2019-02-24T07:40:14.917Z,79.90
2019-02-24T07:41:21.593Z,79.40
2019-02-24T07:42:26.437Z,79.20
2019-02-24T07:43:38.327Z,78.70
2019-02-24T07:44:44.078Z,78.50
2019-02-24T07:45:50.685Z,77.50
2019-02-24T07:46:55.908Z,77.10
2019-02-24T07:48:14.699Z,77.30
2019-02-24T07:49:20.019Z,76.70
2019-02-24T07:50:35.373Z,75.30
2019-02-24T07:51:40.469Z,74.70
2019-02-24T07:52:48.471Z,75.00
2019-02-24T07:53:53.399Z,74.20
2019-02-24T07:54:59.039Z,74.00
2019-02-24T07:56:04.921Z,73.60
2019-02-24T07:57:13.455Z,73.50
2019-02-24T07:58:25.255Z,72.70
2019-02-24T07:59:29.589Z,72.20
2019-02-24T08:00:34.697Z,71.60
2019-02-24T08:01:44.578Z,72.10
2019-02-24T08:02:50.024Z,71.70
2019-02-24T08:03:55.057Z,71.50
2019-02-24T08:05:05.823Z,70.20
2019-02-24T08:06:11.283Z,70.40
2019-02-24T08:07:16.827Z,70.80
2019-02-24T08:08:21.666Z,69.50
2019-02-24T08:10:09.597Z,69.10
2019-02-24T08:11:27.423Z,69.10
2019-02-24T08:12:45.692Z,68.50
2019-02-24T08:14:15.480Z,68.50
2019-02-24T08:15:28.919Z,67.70
2019-02-24T08:16:58.101Z,67.40
2019-02-24T08:17:54.745Z,67.50
2019-02-24T08:19:01.575Z,67.10
2019-02-24T08:20:09.082Z,67.00
2019-02-24T08:21:15.900Z,67.20
2019-02-24T08:22:24.233Z,67.20
2019-02-24T08:23:43.272Z,67.00
2019-02-24T08:24:49.760Z,66.40
2019-02-24T08:26:07.151Z,66.30
2019-02-24T08:27:18.116Z,65.80
2019-02-24T08:28:31.069Z,65.80
2019-02-24T08:29:52.127Z,65.40
2019-02-24T08:30:58.609Z,64.80
2019-02-24T08:32:25.644Z,64.60
2019-02-24T08:33:48.218Z,64.80
2019-02-24T08:35:58.878Z,63.90
2019-02-24T08:37:35.138Z,64.00
2019-02-24T08:38:56.781Z,63.20
2019-02-24T08:40:34.547Z,62.80
2019-02-24T08:41:50.530Z,62.00
2019-02-24T08:43:08.401Z,61.90
2019-02-24T08:44:22.141Z,61.50
2019-02-24T08:45:30.596Z,60.90
2019-02-24T08:46:43.800Z,60.80
2019-02-24T08:47:51.080Z,60.90
2019-02-24T08:48:59.092Z,60.30
2019-02-24T08:50:04.418Z,59.80
2019-02-24T08:51:19.347Z,60.10
2019-02-24T08:52:30.120Z,60.10
2019-02-24T08:53:43.367Z,60.80
2019-02-24T08:54:48.532Z,60.70
2019-02-24T08:55:53.414Z,60.30
2019-02-24T08:57:04.950Z,60.80
2019-02-24T08:58:22.040Z,61.50
2019-02-24T08:59:29.566Z,61.20
2019-02-24T09:00:35.414Z,61.60
2019-02-24T09:01:41.810Z,61.50
2019-02-24T09:02:47.128Z,61.90
2019-02-24T09:03:51.933Z,61.70
2019-02-24T09:05:00.211Z,61.60
2019-02-24T09:06:10.020Z,62.10
2019-02-24T09:09:44.268Z,61.20
2019-02-24T09:11:00.166Z,61.50
2019-02-24T09:12:19.897Z,61.20
2019-02-24T09:13:26.804Z,61.40
2019-02-24T09:14:34.926Z,61.40
2019-02-24T09:16:01.663Z,60.30
2019-02-24T09:17:12.182Z,60.10
2019-02-24T09:18:18.134Z,59.70
2019-02-24T09:19:24.986Z,59.90
2019-02-24T09:20:33.433Z,60.60
2019-02-24T09:21:41.093Z,60.50
2019-02-24T09:22:53.556Z,60.90
2019-02-24T09:24:10.392Z,61.00
2019-02-24T09:25:15.380Z,58.80
2019-02-24T09:26:24.725Z,59.50
2019-02-24T09:27:31.792Z,59.40
2019-02-24T09:28:41.337Z,59.70
2019-02-24T09:29:46.418Z,59.70
2019-02-24T09:31:00.179Z,59.60
2019-02-24T09:31:59.561Z,59.30
2019-02-24T09:33:08.465Z,59.20
2019-02-24T09:34:22.301Z,59.30
2019-02-24T09:35:29.223Z,59.30
2019-02-24T09:36:35.194Z,59.50
2019-02-24T09:37:42.828Z,59.20
2019-02-24T09:38:57.940Z,59.20
2019-02-24T09:40:14.106Z,58.70
2019-02-24T09:41:30.262Z,58.10
2019-02-24T09:42:58.344Z,58.00
2019-02-24T09:44:21.386Z,57.90
2019-02-24T09:45:31.725Z,57.70
2019-02-24T09:46:36.576Z,56.30
2019-02-24T09:50:07.797Z,57.50
2019-02-24T09:51:26.074Z,57.60
2019-02-24T09:52:37.167Z,57.10
2019-02-24T09:55:28.980Z,56.10
2019-02-24T09:56:35.472Z,56.40
2019-02-24T09:57:44.632Z,57.30
2019-02-24T09:58:59.583Z,55.40
2019-02-24T10:00:10.102Z,55.30
2019-02-24T10:01:16.749Z,56.50
2019-02-24T10:02:41.350Z,56.40
2019-02-24T10:03:55.866Z,56.30
2019-02-24T10:05:06.027Z,56.40
2019-02-24T10:06:16.985Z,54.50
2019-02-24T10:07:26.801Z,54.70
2019-02-24T10:08:37.438Z,54.90
2019-02-24T10:09:54.852Z,53.20
2019-02-24T10:11:00.061Z,52.90
2019-02-24T10:12:05.511Z,53.80
2019-02-24T10:13:28.465Z,53.00
2019-02-24T10:15:04.976Z,53.40
2019-02-24T10:16:18.235Z,53.40
2019-02-24T10:17:35.256Z,54.70
2019-02-24T10:18:44.034Z,54.20
2019-02-24T10:19:54.146Z,52.90
2019-02-24T10:21:03.792Z,54.00
2019-02-24T10:22:35.199Z,52.70
2019-02-24T10:23:40.283Z,51.30
2019-02-24T10:24:47.437Z,48.40
2019-02-24T10:25:53.993Z,47.80
2019-02-24T10:27:04.591Z,47.50
2019-02-24T10:28:32.404Z,48.00
2019-02-24T10:29:41.320Z,47.40
2019-02-24T10:33:13.362Z,47.50
2019-02-24T10:34:21.415Z,47.50
2019-02-24T10:35:29.847Z,46.30
2019-02-24T10:36:36.561Z,45.70
2019-02-24T10:37:44.776Z,45.30
2019-02-24T10:38:51.274Z,44.90
2019-02-24T10:39:58.352Z,45.30
2019-02-24T10:41:23.595Z,45.20
2019-02-24T10:42:44.237Z,44.40
2019-02-24T10:43:49.787Z,43.70
2019-02-24T10:44:55.167Z,44.20
2019-02-24T10:46:19.732Z,45.60
2019-02-24T10:47:33.126Z,43.80
2019-02-24T10:48:45.008Z,43.80
2019-02-24T10:49:50.254Z,46.90
2019-02-24T10:50:58.300Z,48.00
2019-02-24T10:52:08.225Z,47.60
2019-02-24T10:53:12.819Z,44.20
2019-02-24T10:54:17.434Z,43.40
2019-02-24T10:55:22.618Z,42.30
2019-02-24T10:57:51.703Z,43.90
2019-02-24T10:59:03.100Z,41.70
2019-02-24T11:00:17.295Z,41.50
2019-02-24T11:01:29.713Z,40.60
2019-02-24T11:02:32.544Z,39.90
2019-02-24T11:03:39.033Z,39.70
2019-02-24T11:05:11.203Z,39.70
2019-02-24T11:08:44.338Z,38.50
2019-02-24T11:10:10.067Z,38.70
2019-02-24T11:11:16.717Z,37.50
2019-02-24T11:12:35.332Z,37.20
2019-02-24T11:14:04.926Z,35.80
2019-02-24T11:15:30.676Z,35.40
2019-02-24T11:16:40.876Z,35.50
2019-02-24T11:17:48.702Z,37.00
2019-02-24T11:19:02.534Z,35.90
2019-02-24T11:20:19.791Z,37.60
2019-02-24T11:21:45.084Z,37.10
2019-02-24T11:23:44.284Z,35.60
2019-02-24T11:24:53.609Z,33.60
2019-02-24T11:26:01.118Z,32.90
2019-02-24T11:27:11.051Z,32.80
2019-02-24T11:28:20.455Z,33.10
2019-02-24T11:29:59.002Z,33.90
2019-02-24T11:31:05.842Z,34.10
2019-02-24T11:32:16.972Z,33.10
2019-02-24T11:33:31.080Z,32.70
2019-02-24T11:34:37.290Z,31.60
2019-02-24T11:35:44.959Z,31.40
2019-02-24T11:36:54.800Z,30.80
2019-02-24T11:38:03.228Z,30.40
2019-02-24T11:39:09.130Z,29.40
2019-02-24T11:40:14.448Z,30.80
2019-02-24T11:41:19.605Z,31.00
2019-02-24T11:42:25.323Z,30.00
2019-02-24T11:43:30.707Z,29.40
2019-02-24T11:44:35.638Z,29.20
2019-02-24T11:45:41.176Z,29.20
2019-02-24T11:46:46.317Z,29.40
2019-02-24T11:47:55.917Z,29.30
2019-02-24T11:49:03.483Z,31.50
2019-02-24T11:50:13.825Z,30.90
2019-02-24T11:51:28.924Z,29.70
2019-02-24T11:52:36.587Z,29.20
2019-02-24T11:53:43.208Z,28.90
2019-02-24T11:54:50.439Z,29.80
2019-02-24T11:56:03.527Z,30.50
2019-02-24T11:57:29.423Z,29.00
2019-02-24T11:58:36.641Z,28.20
2019-02-24T11:59:59.799Z,27.80
2019-02-24T12:01:06.198Z,27.50
2019-02-24T12:02:21.166Z,25.60
2019-02-24T12:03:30.944Z,25.70
2019-02-24T12:04:38.661Z,24.40
2019-02-24T12:05:48.356Z,25.30
2019-02-24T12:07:09.610Z,22.90
2019-02-24T12:08:19.927Z,21.40
2019-02-24T12:09:33.037Z,20.70
2019-02-24T12:10:50.424Z,19.70
2019-02-24T12:11:58.813Z,19.50
2019-02-24T12:13:10.153Z,19.60
2019-02-24T12:14:38.001Z,18.90
2019-02-24T12:15:56.208Z,18.40
2019-02-24T12:17:02.577Z,18.20
2019-02-24T12:18:07.410Z,19.20
2019-02-24T12:19:17.439Z,18.30
2019-02-24T12:20:45.936Z,17.70
2019-02-24T12:21:51.573Z,18.10
2019-02-24T12:23:02.816Z,17.10
2019-02-24T12:24:35.656Z,16.50
2019-02-24T12:25:49.629Z,16.20
2019-02-24T12:26:58.228Z,15.80
2019-02-24T12:28:35.578Z,15.80
2019-02-24T12:30:15.445Z,16.80
2019-02-24T12:31:32.421Z,16.80
2019-02-24T12:32:48.430Z,17.30
2019-02-24T12:34:00.286Z,17.00
2019-02-24T12:35:06.103Z,16.20
2019-02-24T12:36:11.682Z,15.60
2019-02-24T12:37:24.549Z,16.60
2019-02-24T12:38:34.977Z,15.80
2019-02-24T12:39:45.000Z,15.20
2019-02-24T12:41:03.034Z,15.10
2019-02-24T12:42:26.297Z,15.80
2019-02-24T12:44:08.756Z,15.60
2019-02-24T12:45:15.935Z,14.50
2019-02-24T12:48:22.139Z,15.20
2019-02-24T12:49:37.431Z,15.10
2019-02-24T12:50:51.373Z,13.70
2019-02-24T12:52:26.518Z,14.10
2019-02-24T12:53:42.671Z,14.00
2019-02-24T12:54:51.271Z,13.40
2019-02-24T12:56:40.283Z,13.70
2019-02-24T12:58:28.549Z,13.50
2019-02-24T12:59:43.525Z,15.10
2019-02-24T13:01:23.748Z,13.30
2019-02-24T13:02:38.272Z,14.10
2019-02-24T13:03:44.156Z,13.80
2019-02-24T13:04:59.001Z,13.10
2019-02-24T13:06:18.105Z,12.50
2019-02-24T13:07:30.420Z,12.60
2019-02-24T13:08:59.242Z,12.80
2019-02-24T13:10:30.340Z,14.10
2019-02-24T13:12:22.949Z,14.20
2019-02-24T13:13:40.720Z,13.50
2019-02-24T13:14:51.522Z,13.40
2019-02-24T13:16:00.753Z,13.30
2019-02-24T13:17:12.350Z,13.80
2019-02-24T13:18:29.715Z,13.30
2019-02-24T13:19:40.390Z,13.70
2019-02-24T13:21:11.667Z,13.10
2019-02-24T13:22:15.634Z,14.10
2019-02-24T13:23:20.856Z,14.00
2019-02-24T13:24:28.959Z,14.40
2019-02-24T13:25:44.210Z,14.20
2019-02-24T13:26:50.056Z,13.00
2019-02-24T13:28:05.333Z,13.50
2019-02-24T13:29:19.299Z,13.50
2019-02-24T13:30:28.297Z,12.70
2019-02-24T13:33:32.677Z,12.90
2019-02-24T13:34:43.547Z,12.70
2019-02-24T13:36:17.705Z,13.40
2019-02-24T13:37:33.348Z,14.10
2019-02-24T13:38:52.086Z,15.30
2019-02-24T13:40:05.305Z,13.80
2019-02-24T13:41:19.222Z,13.40
2019-02-24T13:42:24.651Z,14.90
2019-02-24T13:43:33.212Z,15.40
2019-02-24T13:44:46.213Z,13.60
2019-02-24T13:45:51.822Z,14.00
2019-02-24T13:46:58.093Z,14.50
2019-02-24T13:48:03.190Z,14.20
2019-02-24T13:49:19.193Z,14.90
2019-02-24T13:53:02.594Z,14.20
2019-02-24T13:54:20.401Z,14.60
2019-02-24T13:56:01.351Z,16.10
2019-02-24T13:57:27.810Z,16.50
2019-02-24T13:59:03.018Z,15.00
2019-02-24T14:00:13.980Z,15.10
2019-02-24T14:02:08.760Z,15.00
2019-02-24T14:03:46.581Z,15.30
2019-02-24T14:05:26.912Z,15.90
2019-02-24T14:06:50.063Z,15.40
2019-02-24T14:08:03.546Z,15.20
2019-02-24T14:09:29.356Z,15.30
2019-02-24T14:10:40.346Z,15.80
2019-02-24T14:11:52.273Z,15.80
2019-02-24T14:13:05.076Z,16.30
2019-02-24T14:14:10.060Z,17.20
2019-02-24T14:15:19.069Z,15.70
2019-02-24T14:16:24.121Z,15.90
2019-02-24T14:17:29.155Z,17.10
2019-02-24T14:18:34.580Z,16.70
2019-02-24T14:19:41.082Z,16.40
2019-02-24T14:20:50.571Z,17.10
2019-02-24T14:22:06.722Z,17.60
2019-02-24T14:23:16.326Z,18.00
2019-02-24T14:24:28.026Z,18.00
2019-02-24T14:25:37.537Z,18.30
2019-02-24T14:26:50.418Z,17.20
2019-02-24T14:28:09.065Z,17.20
2019-02-24T14:29:14.203Z,16.50
2019-02-24T14:30:19.472Z,16.00
2019-02-24T14:33:10.485Z,16.40
2019-02-24T14:34:24.174Z,16.60
2019-02-24T14:35:28.456Z,17.30
2019-02-24T14:36:34.948Z,18.00
2019-02-24T14:37:41.048Z,18.00
2019-02-24T14:38:54.263Z,17.40
2019-02-24T14:39:59.976Z,17.00
2019-02-24T14:41:08.975Z,17.10
2019-02-24T14:42:16.932Z,16.50
2019-02-24T14:43:23.602Z,16.50
2019-02-24T14:44:45.055Z,16.10
2019-02-24T14:45:50.348Z,16.30
2019-02-24T14:47:00.829Z,17.00
2019-02-24T14:48:06.637Z,17.60
2019-02-24T14:49:12.175Z,17.20
2019-02-24T14:50:17.489Z,17.30
2019-02-24T14:51:30.884Z,18.10
2019-02-24T14:52:36.114Z,18.40
2019-02-24T14:53:54.128Z,18.50
2019-02-24T14:54:59.603Z,17.40
2019-02-24T14:56:05.174Z,17.70
2019-02-24T14:57:18.445Z,17.80
2019-02-24T14:58:44.695Z,16.70
2019-02-24T14:59:57.661Z,16.40
2019-02-24T15:01:02.108Z,16.60
2019-02-24T15:02:08.379Z,17.00
2019-02-24T15:03:15.640Z,35.70
2019-02-24T15:04:22.533Z,17.10
2019-02-24T15:05:37.085Z,17.10
2019-02-24T15:06:41.855Z,17.70
2019-02-24T15:07:51.860Z,18.20
2019-02-24T15:09:00.186Z,18.10
2019-02-24T15:10:15.328Z,18.00
2019-02-24T15:11:24.244Z,18.00
2019-02-24T15:12:32.448Z,16.50
2019-02-24T15:13:40.294Z,17.00